createdAt,value
2017-10-01T00:00:24.867Z,10.71
2017-10-01T00:01:25.587Z,10.74
2017-10-01T00:02:26.294Z,10.60
2017-10-01T00:03:27.014Z,10.74
2017-10-01T00:04:27.724Z,10.67
2017-10-01T00:05:28.444Z,10.74
2017-10-01T00:06:29.154Z,10.67
2017-10-01T00:07:29.866Z,10.68
2017-10-01T00:08:30.587Z,10.61
2017-10-01T00:09:31.301Z,10.71
2017-10-01T00:10:32.007Z,10.67
2017-10-01T00:11:32.717Z,10.72
2017-10-01T00:12:33.427Z,10.72
2017-10-01T00:13:34.137Z,10.69
2017-10-01T00:14:34.845Z,10.63
2017-10-01T00:15:35.557Z,10.63
2017-10-01T00:16:36.270Z,10.67
2017-10-01T00:17:36.977Z,10.67
2017-10-01T00:18:37.697Z,10.57
2017-10-01T00:19:38.409Z,10.71
2017-10-01T00:20:39.116Z,10.63
2017-10-01T00:21:39.830Z,10.67
2017-10-01T00:22:40.539Z,10.63
2017-10-01T00:23:41.252Z,10.72
2017-10-01T00:24:41.974Z,10.67
2017-10-01T00:25:42.694Z,10.68
2017-10-01T00:26:43.418Z,10.67
2017-10-01T00:27:44.142Z,10.61
2017-10-01T00:28:44.847Z,10.68
2017-10-01T00:29:45.555Z,10.71
2017-10-01T00:30:46.264Z,10.63
2017-10-01T00:31:46.974Z,10.54
2017-10-01T00:32:47.682Z,10.60
2017-10-01T00:33:48.392Z,10.60
2017-10-01T00:34:49.101Z,10.63
2017-10-01T00:35:49.811Z,10.68
2017-10-01T00:36:50.523Z,10.60
2017-10-01T00:37:51.230Z,10.63
2017-10-01T00:38:51.950Z,10.71
2017-10-01T00:39:52.673Z,10.63
2017-10-01T00:40:53.383Z,10.59
2017-10-01T00:41:54.094Z,10.61
2017-10-01T00:42:54.806Z,10.59
2017-10-01T00:43:55.514Z,10.49
2017-10-01T00:44:56.224Z,10.60
2017-10-01T00:45:56.946Z,10.57
2017-10-01T00:46:57.655Z,10.61
2017-10-01T00:47:58.364Z,10.59
2017-10-01T00:48:59.087Z,10.57
2017-10-01T00:49:59.796Z,10.59
2017-10-01T00:51:00.506Z,10.51
2017-10-01T00:52:01.215Z,10.56
2017-10-01T00:53:01.925Z,10.57
2017-10-01T00:54:02.632Z,10.54
2017-10-01T00:55:03.341Z,10.53
2017-10-01T00:56:04.050Z,10.49
2017-10-01T00:57:04.773Z,10.56
2017-10-01T00:58:05.482Z,10.61
2017-10-01T00:59:06.192Z,10.49
2017-10-01T01:00:06.908Z,10.51
2017-10-01T01:01:07.622Z,10.49
2017-10-01T01:02:08.332Z,10.49
2017-10-01T01:03:09.042Z,10.44
2017-10-01T01:04:09.762Z,10.48
2017-10-01T01:05:10.471Z,10.44
2017-10-01T01:06:11.180Z,10.48
2017-10-01T01:07:11.896Z,10.44
2017-10-01T01:08:12.595Z,10.48
2017-10-01T01:09:13.304Z,10.41
2017-10-01T01:10:14.016Z,10.46
2017-10-01T01:11:14.736Z,10.44
2017-10-01T01:12:15.457Z,10.48
2017-10-01T01:13:16.166Z,10.46
2017-10-01T01:14:16.880Z,10.46
2017-10-01T01:15:17.597Z,10.44
2017-10-01T01:16:18.321Z,10.49
2017-10-01T01:17:19.030Z,10.51
2017-10-01T01:18:19.742Z,10.54
2017-10-01T01:19:20.451Z,10.53
2017-10-01T01:20:21.161Z,10.57
2017-10-01T01:21:21.869Z,10.57
2017-10-01T01:22:22.577Z,10.61
2017-10-01T01:23:23.288Z,10.57
2017-10-01T01:24:23.997Z,10.53
2017-10-01T01:25:24.705Z,10.54
2017-10-01T01:26:25.414Z,10.53
2017-10-01T01:27:26.125Z,10.54
2017-10-01T01:28:26.834Z,10.60
2017-10-01T01:29:27.556Z,10.59
2017-10-01T01:30:28.268Z,10.49
2017-10-01T01:31:28.980Z,10.53
2017-10-01T01:32:29.689Z,10.49
2017-10-01T01:33:30.399Z,10.61
2017-10-01T01:34:31.123Z,10.54
2017-10-01T01:35:31.833Z,10.54
2017-10-01T01:36:32.545Z,10.57
2017-10-01T01:37:33.253Z,10.54
2017-10-01T01:38:33.963Z,10.60
2017-10-01T01:39:34.673Z,10.57
2017-10-01T01:40:35.383Z,10.53
2017-10-01T01:41:36.094Z,10.60
2017-10-01T01:42:36.805Z,10.53
2017-10-01T01:43:37.518Z,10.59
2017-10-01T01:44:38.234Z,10.63
2017-10-01T01:45:38.953Z,10.67
2017-10-01T01:46:39.677Z,10.61
2017-10-01T01:47:40.389Z,10.53
2017-10-01T01:48:41.099Z,10.64
2017-10-01T01:49:41.810Z,10.67
2017-10-01T01:50:42.522Z,10.51
2017-10-01T01:51:43.247Z,10.60
2017-10-01T01:52:43.959Z,10.60
2017-10-01T01:53:44.671Z,10.57
2017-10-01T01:54:45.381Z,10.63
2017-10-01T01:55:46.091Z,10.54
2017-10-01T01:56:46.805Z,10.54
2017-10-01T01:57:47.511Z,10.57
2017-10-01T01:58:48.237Z,10.57
2017-10-01T01:59:48.932Z,10.59
2017-10-01T02:00:49.643Z,10.67
2017-10-01T02:01:50.368Z,10.63
2017-10-01T02:02:51.079Z,10.49
2017-10-01T02:03:51.791Z,10.63
2017-10-01T02:04:52.503Z,10.63
2017-10-01T02:05:53.216Z,10.68
2017-10-01T02:06:53.927Z,10.56
2017-10-01T02:07:54.639Z,10.68
2017-10-01T02:08:55.357Z,10.60
2017-10-01T02:09:56.078Z,10.61
2017-10-01T02:10:56.787Z,10.60
2017-10-01T02:11:57.495Z,10.68
2017-10-01T02:12:58.204Z,10.74
2017-10-01T02:13:58.913Z,10.71
2017-10-01T02:14:59.623Z,10.68
2017-10-01T02:16:00.347Z,10.71
2017-10-01T02:17:01.059Z,10.74
2017-10-01T02:18:01.782Z,10.72
2017-10-01T02:19:02.490Z,10.72
2017-10-01T02:20:03.203Z,10.67
2017-10-01T02:21:03.911Z,10.68
2017-10-01T02:22:04.620Z,10.68
2017-10-01T02:23:05.330Z,10.64
2017-10-01T02:24:06.043Z,10.67
2017-10-01T02:25:06.755Z,10.61
2017-10-01T02:26:07.460Z,10.67
2017-10-01T02:27:08.169Z,10.69
2017-10-01T02:28:08.878Z,10.72
2017-10-01T02:29:09.601Z,10.67
2017-10-01T02:30:10.324Z,10.60
2017-10-01T02:31:11.032Z,10.69
2017-10-01T02:32:11.742Z,10.68
2017-10-01T02:33:12.453Z,10.64
2017-10-01T02:34:13.162Z,10.57
2017-10-01T02:35:13.871Z,10.54
2017-10-01T02:36:14.584Z,10.54
2017-10-01T02:37:15.311Z,10.49
2017-10-01T02:38:16.028Z,10.57
2017-10-01T02:39:16.737Z,10.60
2017-10-01T02:40:17.445Z,10.56
2017-10-01T02:41:18.168Z,10.49
2017-10-01T02:42:18.877Z,10.54
2017-10-01T02:43:19.586Z,10.51
2017-10-01T02:44:20.307Z,10.51
2017-10-01T02:45:21.030Z,10.48
2017-10-01T02:46:21.740Z,10.59
2017-10-01T02:47:22.463Z,10.53
2017-10-01T02:48:23.172Z,10.51
2017-10-01T02:49:23.882Z,10.60
2017-10-01T02:50:24.593Z,10.54
2017-10-01T02:51:25.302Z,10.59
2017-10-01T02:52:26.013Z,10.67
2017-10-01T02:53:26.722Z,10.69
2017-10-01T02:54:27.433Z,10.68
2017-10-01T02:55:28.157Z,10.61
2017-10-01T02:56:28.875Z,10.63
2017-10-01T02:57:29.592Z,10.61
2017-10-01T02:58:30.301Z,10.67
2017-10-01T02:59:31.009Z,10.68
2017-10-01T03:00:31.720Z,10.71
2017-10-01T03:01:32.445Z,10.63
2017-10-01T03:02:33.164Z,10.67
2017-10-01T03:03:33.874Z,10.69
2017-10-01T03:04:34.594Z,10.72
2017-10-01T03:05:35.306Z,10.56
2017-10-01T03:06:36.016Z,10.57
2017-10-01T03:07:36.726Z,10.54
2017-10-01T03:08:37.437Z,10.57
2017-10-01T03:09:38.145Z,10.63
2017-10-01T03:10:38.854Z,10.57
2017-10-01T03:11:39.565Z,10.56
2017-10-01T03:12:40.275Z,10.56
2017-10-01T03:13:40.990Z,10.60
2017-10-01T03:14:41.696Z,10.59
2017-10-01T03:15:42.406Z,10.60
2017-10-01T03:16:43.118Z,10.60
2017-10-01T03:17:43.828Z,10.60
2017-10-01T03:18:44.540Z,10.60
2017-10-01T03:19:45.252Z,10.57
2017-10-01T03:20:45.975Z,10.44
2017-10-01T03:21:46.686Z,10.53
2017-10-01T03:22:47.397Z,10.54
2017-10-01T03:23:48.116Z,10.59
2017-10-01T03:24:48.825Z,10.51
2017-10-01T03:25:49.535Z,10.63
2017-10-01T03:26:50.261Z,10.63
2017-10-01T03:27:50.969Z,10.68
2017-10-01T03:28:51.698Z,10.68
2017-10-01T03:29:52.399Z,10.71
2017-10-01T03:30:53.112Z,10.67
2017-10-01T03:31:53.822Z,10.64
2017-10-01T03:32:54.532Z,10.51
2017-10-01T03:33:55.255Z,10.56
2017-10-01T03:34:55.967Z,10.49
2017-10-01T03:35:56.687Z,10.51
2017-10-01T03:36:57.397Z,10.60
2017-10-01T03:37:58.118Z,10.48
2017-10-01T03:38:58.840Z,10.51
2017-10-01T03:39:59.554Z,10.48
2017-10-01T03:41:00.265Z,10.48
2017-10-01T03:42:00.974Z,10.53
2017-10-01T03:43:01.688Z,10.53
2017-10-01T03:44:02.394Z,10.57
2017-10-01T03:45:03.114Z,10.59
2017-10-01T03:46:03.825Z,10.61
2017-10-01T03:48:05.174Z,10.49
2017-10-01T03:49:05.887Z,10.59
2017-10-01T03:50:06.602Z,10.59
2017-10-01T03:51:07.315Z,10.49
2017-10-01T03:52:08.028Z,10.64
2017-10-01T03:53:08.753Z,10.49
2017-10-01T03:54:09.465Z,10.48
2017-10-01T03:55:10.176Z,10.49
2017-10-01T03:56:10.890Z,10.57
2017-10-01T03:57:11.602Z,10.51
2017-10-01T03:58:12.328Z,10.56
2017-10-01T03:59:13.040Z,10.57
2017-10-01T04:00:13.753Z,10.59
2017-10-01T04:01:14.465Z,10.71
2017-10-01T04:02:15.178Z,10.63
2017-10-01T04:03:15.907Z,10.64
2017-10-01T04:04:16.623Z,10.64
2017-10-01T04:05:17.369Z,10.68
2017-10-01T04:06:18.094Z,10.69
2017-10-01T04:07:18.823Z,10.75
2017-10-01T04:08:19.536Z,10.67
2017-10-01T04:09:20.249Z,10.76
2017-10-01T04:10:20.960Z,10.78
2017-10-01T04:11:21.685Z,10.68
2017-10-01T04:12:22.399Z,10.64
2017-10-01T04:13:23.113Z,10.69
2017-10-01T04:14:23.839Z,10.60
2017-10-01T04:15:24.553Z,10.59
2017-10-01T04:16:25.267Z,10.54
2017-10-01T04:17:25.993Z,10.54
2017-10-01T04:18:26.708Z,10.56
2017-10-01T04:19:27.430Z,10.59
2017-10-01T04:20:28.142Z,10.60
2017-10-01T04:21:28.854Z,10.63
2017-10-01T04:22:29.566Z,10.59
2017-10-01T04:23:30.277Z,10.49
2017-10-01T04:24:30.989Z,10.53
2017-10-01T04:25:31.702Z,10.54
2017-10-01T04:26:32.430Z,10.54
2017-10-01T04:27:33.141Z,10.54
2017-10-01T04:28:33.856Z,10.49
2017-10-01T04:29:34.568Z,10.67
2017-10-01T04:30:35.293Z,10.68
2017-10-01T04:31:36.011Z,10.69
2017-10-01T04:32:36.735Z,10.69
2017-10-01T04:33:37.446Z,10.67
2017-10-01T04:34:38.174Z,10.64
2017-10-01T04:35:38.887Z,10.67
2017-10-01T04:36:39.603Z,10.60
2017-10-01T04:37:40.308Z,10.67
2017-10-01T04:38:41.020Z,10.63
2017-10-01T04:39:41.738Z,10.68
2017-10-01T04:40:42.446Z,10.54
2017-10-01T04:41:43.159Z,10.57
2017-10-01T04:42:43.870Z,10.60
2017-10-01T04:43:44.584Z,10.54
2017-10-01T04:44:45.298Z,10.46
2017-10-01T04:45:46.014Z,10.49
2017-10-01T04:46:46.724Z,10.49
2017-10-01T04:47:47.435Z,10.41
2017-10-01T04:48:48.150Z,10.44
2017-10-01T04:49:48.859Z,10.41
2017-10-01T04:50:49.571Z,10.49
2017-10-01T04:51:50.284Z,10.42
2017-10-01T04:52:51.003Z,10.49
2017-10-01T04:53:51.718Z,10.46
2017-10-01T04:54:52.444Z,10.37
2017-10-01T04:55:53.170Z,10.37
2017-10-01T04:56:53.881Z,10.35
2017-10-01T04:57:54.597Z,10.40
2017-10-01T04:58:55.310Z,10.37
2017-10-01T04:59:56.036Z,10.33
2017-10-01T05:00:56.748Z,10.28
2017-10-01T05:01:57.459Z,10.37
2017-10-01T05:02:58.171Z,10.41
2017-10-01T05:03:58.882Z,10.33
2017-10-01T05:04:59.608Z,10.38
2017-10-01T05:06:00.347Z,10.31
2017-10-01T05:07:01.061Z,10.37
2017-10-01T05:08:01.773Z,10.40
2017-10-01T05:09:02.486Z,10.35
2017-10-01T05:10:03.197Z,10.37
2017-10-01T05:11:03.927Z,10.42
2017-10-01T05:12:04.653Z,10.44
2017-10-01T05:13:05.366Z,10.33
2017-10-01T05:14:06.078Z,10.35
2017-10-01T05:15:06.808Z,10.31
2017-10-01T05:16:07.533Z,10.19
2017-10-01T05:17:08.245Z,10.12
2017-10-01T05:18:08.959Z,10.15
2017-10-01T05:19:09.671Z,10.19
2017-10-01T05:20:10.385Z,10.26
2017-10-01T05:21:11.099Z,10.23
2017-10-01T05:22:11.812Z,10.20
2017-10-01T05:23:12.528Z,10.20
2017-10-01T05:24:13.242Z,10.30
2017-10-01T05:25:13.954Z,10.28
2017-10-01T05:26:14.668Z,10.26
2017-10-01T05:27:15.396Z,10.26
2017-10-01T05:28:16.111Z,10.17
2017-10-01T05:29:16.829Z,10.26
2017-10-01T05:30:17.543Z,10.19
2017-10-01T05:31:18.269Z,10.28
2017-10-01T05:32:18.998Z,10.26
2017-10-01T05:33:19.711Z,10.23
2017-10-01T05:34:20.439Z,10.19
2017-10-01T05:35:21.154Z,10.26
2017-10-01T05:36:21.870Z,10.25
2017-10-01T05:37:22.586Z,10.22
2017-10-01T05:38:23.299Z,10.20
2017-10-01T05:39:24.014Z,10.23
2017-10-01T05:40:24.729Z,10.30
2017-10-01T05:41:25.457Z,10.23
2017-10-01T05:42:26.174Z,10.28
2017-10-01T05:43:26.888Z,10.20
2017-10-01T05:44:27.602Z,10.30
2017-10-01T05:45:28.317Z,10.37
2017-10-01T05:46:29.033Z,10.37
2017-10-01T05:47:29.748Z,10.35
2017-10-01T05:48:30.466Z,10.34
2017-10-01T05:49:31.180Z,10.28
2017-10-01T05:50:31.896Z,10.35
2017-10-01T05:51:32.613Z,10.35
2017-10-01T05:52:33.343Z,10.48
2017-10-01T05:53:34.059Z,10.41
2017-10-01T05:54:34.789Z,10.31
2017-10-01T05:55:35.505Z,10.37
2017-10-01T05:56:36.221Z,10.26
2017-10-01T05:57:36.936Z,10.20
2017-10-01T05:58:37.653Z,10.26
2017-10-01T05:59:38.366Z,10.20
2017-10-01T06:00:39.083Z,10.30
2017-10-01T06:01:39.800Z,10.25
2017-10-01T06:02:40.515Z,10.19
2017-10-01T06:03:41.245Z,10.22
2017-10-01T06:04:41.962Z,10.26
2017-10-01T06:05:42.680Z,10.28
2017-10-01T06:06:43.395Z,10.28
2017-10-01T06:07:44.123Z,10.33
2017-10-01T06:08:44.838Z,10.26
2017-10-01T06:09:45.556Z,10.33
2017-10-01T06:10:46.276Z,10.30
2017-10-01T06:11:47.002Z,10.28
2017-10-01T06:12:47.722Z,10.37
2017-10-01T06:13:48.452Z,10.40
2017-10-01T06:14:49.167Z,10.37
2017-10-01T06:15:49.885Z,10.42
2017-10-01T06:16:50.601Z,10.46
2017-10-01T06:17:51.319Z,10.42
2017-10-01T06:18:52.035Z,10.44
2017-10-01T06:19:52.754Z,10.42
2017-10-01T06:20:53.474Z,10.44
2017-10-01T06:21:54.187Z,10.48
2017-10-01T06:22:54.905Z,10.46
2017-10-01T06:23:55.621Z,10.46
2017-10-01T06:24:56.354Z,10.51
2017-10-01T06:25:57.073Z,10.59
2017-10-01T06:26:57.808Z,10.59
2017-10-01T06:27:58.536Z,10.51
2017-10-01T06:28:59.253Z,10.48
2017-10-01T06:29:59.971Z,10.44
2017-10-01T06:31:00.687Z,10.51
2017-10-01T06:32:01.419Z,10.35
2017-10-01T06:33:02.151Z,10.46
2017-10-01T06:34:02.880Z,10.41
2017-10-01T06:35:03.598Z,10.48
2017-10-01T06:36:04.315Z,10.53
2017-10-01T06:37:05.035Z,10.59
2017-10-01T06:38:05.754Z,10.78
2017-10-01T06:39:06.472Z,10.81
2017-10-01T06:40:07.191Z,10.74
2017-10-01T06:41:07.908Z,11.05
2017-10-01T06:42:08.626Z,11.27
2017-10-01T06:43:09.346Z,11.29
2017-10-01T06:44:10.065Z,11.32
2017-10-01T06:45:10.786Z,11.75
2017-10-01T06:46:11.502Z,11.88
2017-10-01T06:47:12.221Z,11.95
2017-10-01T06:48:12.940Z,12.21
2017-10-01T06:49:13.674Z,12.27
2017-10-01T06:50:14.394Z,12.25
2017-10-01T06:51:15.129Z,12.32
2017-10-01T06:52:15.848Z,12.47
2017-10-01T06:53:16.569Z,12.73
2017-10-01T06:54:17.290Z,12.91
2017-10-01T06:55:18.011Z,13.00
2017-10-01T06:56:18.734Z,13.22
2017-10-01T06:57:19.455Z,13.41
2017-10-01T06:58:20.192Z,13.53
2017-10-01T06:59:20.914Z,13.60
2017-10-01T07:00:21.635Z,13.67
2017-10-01T07:01:22.358Z,13.65
2017-10-01T07:02:23.082Z,13.89
2017-10-01T07:03:23.824Z,13.68
2017-10-01T07:04:24.554Z,14.05
2017-10-01T07:05:25.277Z,14.00
2017-10-01T07:06:26.013Z,14.00
2017-10-01T07:07:26.741Z,13.97
2017-10-01T07:08:27.464Z,13.72
2017-10-01T07:09:28.202Z,13.81
2017-10-01T07:10:28.924Z,13.99
2017-10-01T07:11:29.662Z,13.53
2017-10-01T07:12:30.384Z,13.12
2017-10-01T07:13:31.106Z,12.73
2017-10-01T07:14:31.828Z,12.78
2017-10-01T07:15:32.550Z,12.76
2017-10-01T07:16:33.275Z,13.01
2017-10-01T07:17:33.997Z,13.28
2017-10-01T07:18:34.721Z,13.49
2017-10-01T07:19:35.444Z,13.70
2017-10-01T07:20:36.169Z,13.99
2017-10-01T07:21:36.905Z,14.17
2017-10-01T07:22:37.628Z,14.10
2017-10-01T07:23:38.365Z,14.22
2017-10-01T07:24:39.090Z,14.41
2017-10-01T07:25:39.815Z,14.63
2017-10-01T07:26:40.540Z,14.23
2017-10-01T07:27:41.276Z,14.60
2017-10-01T07:28:42.001Z,14.81
2017-10-01T07:29:42.728Z,14.81
2017-10-01T07:30:43.472Z,15.06
2017-10-01T07:31:44.192Z,15.17
2017-10-01T07:32:44.948Z,15.58
2017-10-01T07:33:45.688Z,15.90
2017-10-01T07:34:46.412Z,16.00
2017-10-01T07:35:47.138Z,16.26
2017-10-01T07:36:47.877Z,15.88
2017-10-01T07:37:48.602Z,15.62
2017-10-01T07:38:49.328Z,15.80
2017-10-01T07:39:50.068Z,15.97
2017-10-01T07:40:50.806Z,16.08
2017-10-01T07:41:51.531Z,16.00
2017-10-01T07:42:52.286Z,16.23
2017-10-01T07:43:53.015Z,16.46
2017-10-01T07:44:53.752Z,16.10
2017-10-01T07:45:54.479Z,16.20
2017-10-01T07:46:55.203Z,16.28
2017-10-01T07:47:55.932Z,16.13
2017-10-01T07:48:56.671Z,16.29
2017-10-01T07:49:57.397Z,16.28
2017-10-01T07:50:58.126Z,16.41
2017-10-01T07:51:58.897Z,16.36
2017-10-01T07:52:59.623Z,16.32
2017-10-01T07:54:00.352Z,16.32
2017-10-01T07:55:01.078Z,16.32
2017-10-01T07:56:01.807Z,15.72
2017-10-01T07:57:02.534Z,15.22
2017-10-01T07:58:03.260Z,15.29
2017-10-01T07:59:03.989Z,15.70
2017-10-01T08:00:04.713Z,15.70
2017-10-01T08:01:05.439Z,15.88
2017-10-01T08:02:06.180Z,16.01
2017-10-01T08:03:06.922Z,15.97
2017-10-01T08:04:07.648Z,16.64
2017-10-01T08:05:08.375Z,16.64
2017-10-01T08:06:09.119Z,16.75
2017-10-01T08:07:09.846Z,17.01
2017-10-01T08:08:10.575Z,17.01
2017-10-01T08:09:11.300Z,17.39
2017-10-01T08:10:12.042Z,17.31
2017-10-01T08:11:12.768Z,17.83
2017-10-01T08:12:13.496Z,17.80
2017-10-01T08:13:14.223Z,17.89
2017-10-01T08:14:14.952Z,18.13
2017-10-01T08:15:15.695Z,17.86
2017-10-01T08:16:16.425Z,17.51
2017-10-01T08:17:17.154Z,17.83
2017-10-01T08:18:17.898Z,17.71
2017-10-01T08:19:18.629Z,18.10
2017-10-01T08:20:19.358Z,17.57
2017-10-01T08:21:20.089Z,17.36
2017-10-01T08:22:20.820Z,17.24
2017-10-01T08:23:21.549Z,17.33
2017-10-01T08:24:22.294Z,17.39
2017-10-01T08:25:23.025Z,17.85
2017-10-01T08:26:23.754Z,17.52
2017-10-01T08:27:24.486Z,17.72
2017-10-01T08:28:25.217Z,18.19
2017-10-01T08:29:25.948Z,18.20
2017-10-01T08:30:26.694Z,18.13
2017-10-01T08:31:27.426Z,18.74
2017-10-01T08:32:28.157Z,19.00
2017-10-01T08:33:28.900Z,19.41
2017-10-01T08:34:29.647Z,19.70
2017-10-01T08:35:30.392Z,19.69
2017-10-01T08:36:31.124Z,19.91
2017-10-01T08:37:31.869Z,19.18
2017-10-01T08:38:32.602Z,19.11
2017-10-01T08:39:33.333Z,19.55
2017-10-01T08:40:34.076Z,19.51
2017-10-01T08:41:34.797Z,19.55
2017-10-01T08:42:35.542Z,19.55
2017-10-01T13:39:29.213Z,22.07
2017-10-01T13:40:29.943Z,22.11
2017-10-01T13:41:30.672Z,21.77
2017-10-01T13:42:31.400Z,22.35
2017-10-01T13:43:32.131Z,22.87
2017-10-01T13:45:27.089Z,23.63
2017-10-01T13:46:27.818Z,23.98
2017-10-01T13:47:28.567Z,23.61
2017-10-01T13:48:29.292Z,23.58
2017-10-01T13:49:30.024Z,24.10
2017-10-01T13:50:30.753Z,24.03
2017-10-01T13:51:31.482Z,23.03
2017-10-01T13:52:32.213Z,22.88
2017-10-01T13:53:32.943Z,22.54
2017-10-01T13:54:33.673Z,22.78
2017-10-01T13:55:34.404Z,22.72
2017-10-01T13:56:35.137Z,22.18
2017-10-01T13:57:35.866Z,21.77
2017-10-01T13:58:36.596Z,21.76
2017-10-01T13:59:37.330Z,21.66
2017-10-01T14:00:38.076Z,21.92
2017-10-01T14:01:38.818Z,21.92
2017-10-01T14:02:39.549Z,21.95
2017-10-01T14:03:40.279Z,21.66
2017-10-01T14:04:41.008Z,21.80
2017-10-01T14:05:41.740Z,21.69
2017-10-01T14:06:42.471Z,21.93
2017-10-01T14:07:43.203Z,21.98
2017-10-01T14:08:43.935Z,21.95
2017-10-01T14:09:44.670Z,21.89
2017-10-01T14:10:45.399Z,21.64
2017-10-01T14:11:46.132Z,21.72
2017-10-01T14:12:46.860Z,21.64
2017-10-01T14:13:47.592Z,21.62
2017-10-01T14:14:48.325Z,21.07
2017-10-01T14:15:49.054Z,20.74
2017-10-01T14:16:49.786Z,20.72
2017-10-01T14:17:50.516Z,20.74
2017-10-01T14:18:51.248Z,20.65
2017-10-01T14:19:51.977Z,20.66
2017-10-01T14:20:52.709Z,20.77
2017-10-01T14:21:53.438Z,21.07
2017-10-01T14:22:54.183Z,21.42
2017-10-01T14:23:54.915Z,21.75
2017-10-01T14:24:55.661Z,21.77
2017-10-01T14:25:56.404Z,21.54
2017-10-01T14:26:57.133Z,21.40
2017-10-01T14:27:57.862Z,21.18
2017-10-01T14:28:58.591Z,21.06
2017-10-01T14:29:59.321Z,20.80
2017-10-01T14:31:00.052Z,20.70
2017-10-01T14:32:00.782Z,20.60
2017-10-01T14:33:01.522Z,20.47
2017-10-01T14:34:02.248Z,20.28
2017-10-01T14:35:02.975Z,20.09
2017-10-01T14:36:03.706Z,20.11
2017-10-01T14:37:04.425Z,19.94
2017-10-01T14:38:05.163Z,20.10
2017-10-01T14:39:05.906Z,19.92
2017-10-01T14:40:06.628Z,19.91
2017-10-01T14:41:07.352Z,19.91
2017-10-01T14:42:08.092Z,19.89
2017-10-01T14:43:08.816Z,19.86
2017-10-01T14:44:09.551Z,19.94
2017-10-01T14:45:10.277Z,20.07
2017-10-01T14:46:11.003Z,20.34
2017-10-01T14:47:11.730Z,20.84
2017-10-01T14:48:12.454Z,20.93
2017-10-01T14:49:13.180Z,21.12
2017-10-01T14:50:13.913Z,20.84
2017-10-01T14:51:14.630Z,20.52
2017-10-01T14:52:15.360Z,20.37
2017-10-01T14:53:16.093Z,20.00
2017-10-01T14:54:16.816Z,19.95
2017-10-01T14:55:17.538Z,19.81
2017-10-01T14:56:18.263Z,19.73
2017-10-01T14:57:19.004Z,19.86
2017-10-01T14:58:19.728Z,19.88
2017-10-01T14:59:20.451Z,20.09
2017-10-01T15:00:21.176Z,20.41
2017-10-01T15:01:21.902Z,20.58
2017-10-01T15:02:22.628Z,20.81
2017-10-01T15:03:23.366Z,20.69
2017-10-01T15:04:24.090Z,20.72
2017-10-01T15:05:24.814Z,20.34
2017-10-01T15:06:25.537Z,20.37
2017-10-01T15:07:26.260Z,20.26
2017-10-01T15:08:26.985Z,20.02
2017-10-01T15:09:27.705Z,19.96
2017-10-01T15:10:28.428Z,19.88
2017-10-01T15:11:29.149Z,19.88
2017-10-01T15:12:29.870Z,19.89
2017-10-01T15:13:30.593Z,19.89
2017-10-01T15:14:31.316Z,19.79
2017-10-01T15:15:32.038Z,19.91
2017-10-01T15:16:32.759Z,19.59
2017-10-01T15:17:33.480Z,19.64
2017-10-01T15:18:34.202Z,19.56
2017-10-01T15:19:34.923Z,19.44
2017-10-01T15:20:35.644Z,19.40
2017-10-01T15:21:36.366Z,19.39
2017-10-01T15:22:37.091Z,19.33
2017-10-01T15:23:37.811Z,19.33
2017-10-01T15:24:38.533Z,19.31
2017-10-01T15:25:39.250Z,19.33
2017-10-01T15:26:39.972Z,19.37
2017-10-01T15:27:40.693Z,19.41
2017-10-01T15:28:41.415Z,19.58
2017-10-01T15:29:42.136Z,19.49
2017-10-01T15:30:42.859Z,19.55
2017-10-01T15:31:43.581Z,19.52
2017-10-01T15:32:44.302Z,19.44
2017-10-01T15:33:45.025Z,19.41
2017-10-01T15:34:45.746Z,19.56
2017-10-01T15:35:46.469Z,19.62
2017-10-01T15:36:47.192Z,19.76
2017-10-01T15:37:47.914Z,19.74
2017-10-01T15:38:48.634Z,19.49
2017-10-01T15:39:49.355Z,19.27
2017-10-01T15:40:50.084Z,19.14
2017-10-01T15:41:50.798Z,19.18
2017-10-01T15:42:51.518Z,19.11
2017-10-01T15:43:52.239Z,19.00
2017-10-01T15:44:52.962Z,19.00
2017-10-01T15:45:53.683Z,19.07
2017-10-01T15:46:54.424Z,18.93
2017-10-01T15:47:55.159Z,18.93
2017-10-01T15:48:55.876Z,18.92
2017-10-01T15:49:56.599Z,18.90
2017-10-01T15:50:57.332Z,18.83
2017-10-01T15:51:58.055Z,18.75
2017-10-01T15:52:58.773Z,18.71
2017-10-01T15:53:59.492Z,18.74
2017-10-01T15:55:00.210Z,18.62
2017-10-01T15:56:00.932Z,18.66
2017-10-01T15:57:01.652Z,18.59
2017-10-01T15:58:02.372Z,18.53
2017-10-01T15:59:03.090Z,18.50
2017-10-01T16:00:03.811Z,18.45
2017-10-01T16:01:04.529Z,18.49
2017-10-01T16:02:05.261Z,18.45
2017-10-01T16:03:05.979Z,18.44
2017-10-01T16:04:06.699Z,18.44
2017-10-01T16:05:07.416Z,18.35
2017-10-01T16:06:08.148Z,18.37
2017-10-01T16:07:08.864Z,18.40
2017-10-01T16:08:09.595Z,18.35
2017-10-01T16:09:10.327Z,18.33
2017-10-01T16:10:11.058Z,18.26
2017-10-01T16:11:11.775Z,18.22
2017-10-01T16:12:12.493Z,18.07
2017-10-01T16:13:13.226Z,18.04
2017-10-01T16:14:13.944Z,17.97
2017-10-01T16:15:14.663Z,17.89
2017-10-01T16:16:15.393Z,17.90
2017-10-01T16:17:16.111Z,17.89
2017-10-01T16:18:16.830Z,17.85
2017-10-01T16:19:17.550Z,17.78
2017-10-01T16:20:18.268Z,17.80
2017-10-01T16:21:18.985Z,17.90
2017-10-01T16:22:19.718Z,17.76
2017-10-01T16:23:20.437Z,17.76
2017-10-01T16:24:21.157Z,17.76
2017-10-01T16:25:21.874Z,17.78
2017-10-01T16:26:22.618Z,17.72
2017-10-01T16:27:23.324Z,17.74
2017-10-01T16:28:24.055Z,17.67
2017-10-01T16:29:24.771Z,17.67
2017-10-01T16:30:25.488Z,17.65
2017-10-01T16:31:26.203Z,17.65
2017-10-01T16:32:26.923Z,17.67
2017-10-01T16:33:27.641Z,17.64
2017-10-01T16:34:28.357Z,17.56
2017-10-01T16:35:29.079Z,17.57
2017-10-01T16:36:29.791Z,17.60
2017-10-01T16:37:30.521Z,17.56
2017-10-01T16:38:31.235Z,17.60
2017-10-01T16:39:31.953Z,17.57
2017-10-01T16:40:32.682Z,17.44
2017-10-01T16:41:33.399Z,17.49
2017-10-01T16:42:34.117Z,17.36
2017-10-01T16:43:34.837Z,17.49
2017-10-01T16:44:35.547Z,17.45
2017-10-01T16:45:36.276Z,17.44
2017-10-01T16:46:36.994Z,17.33
2017-10-01T16:47:37.708Z,17.38
2017-10-01T16:48:38.423Z,17.38
2017-10-01T16:49:39.137Z,17.34
2017-10-01T16:50:39.857Z,17.34
2017-10-01T16:51:40.586Z,17.34
2017-10-01T16:52:41.314Z,17.34
2017-10-01T16:53:42.044Z,17.31
2017-10-01T16:54:42.760Z,17.31
2017-10-01T16:55:43.475Z,17.36
2017-10-01T16:56:44.189Z,17.33
2017-10-01T16:57:44.903Z,17.38
2017-10-01T16:58:45.616Z,17.38
2017-10-01T16:59:46.342Z,17.38
2017-10-01T17:00:47.059Z,17.41
2017-10-01T17:01:47.773Z,17.33
2017-10-01T17:02:48.487Z,17.36
2017-10-01T17:03:49.216Z,17.24
2017-10-01T17:04:49.932Z,17.27
2017-10-01T17:05:50.655Z,17.22
2017-10-01T17:06:51.369Z,17.06
2017-10-01T17:07:52.081Z,17.14
2017-10-01T17:08:52.808Z,17.06
2017-10-01T17:09:53.524Z,17.02
2017-10-01T17:10:54.239Z,16.99
2017-10-01T17:11:54.953Z,17.01
2017-10-01T17:12:55.667Z,16.97
2017-10-01T17:13:56.379Z,16.99
2017-10-01T17:14:57.111Z,17.01
2017-10-01T17:15:57.823Z,17.02
2017-10-01T17:16:58.536Z,17.02
2017-10-01T17:17:59.265Z,16.94
2017-10-01T17:18:59.979Z,17.02
2017-10-01T17:20:00.695Z,16.83
2017-10-01T17:21:01.407Z,16.91
2017-10-01T17:22:02.133Z,16.79
2017-10-01T17:23:02.852Z,16.91
2017-10-01T17:24:03.561Z,16.86
2017-10-01T17:25:04.274Z,16.74
2017-10-01T17:26:04.986Z,16.81
2017-10-01T17:27:05.697Z,16.78
2017-10-01T17:28:06.412Z,16.79
2017-10-01T17:29:07.139Z,16.76
2017-10-01T17:30:07.851Z,16.83
2017-10-01T17:31:08.565Z,16.75
2017-10-01T17:32:09.278Z,16.76
2017-10-01T17:33:09.990Z,16.71
2017-10-01T17:34:10.703Z,16.69
2017-10-01T17:35:11.414Z,16.76
2017-10-01T17:36:12.125Z,16.71
2017-10-01T17:37:12.838Z,16.58
2017-10-01T17:38:13.551Z,16.68
2017-10-01T17:39:14.263Z,16.54
2017-10-01T17:40:14.974Z,16.56
2017-10-01T17:41:15.700Z,16.53
2017-10-01T17:42:16.410Z,16.57
2017-10-01T17:43:17.133Z,16.51
2017-10-01T17:44:17.846Z,16.51
2017-10-01T17:45:18.555Z,16.53
2017-10-01T17:46:19.270Z,16.56
2017-10-01T17:47:19.982Z,16.50
2017-10-01T17:48:20.694Z,16.42
2017-10-01T17:49:21.422Z,16.33
2017-10-01T17:50:22.136Z,16.33
2017-10-01T17:51:22.847Z,16.36
2017-10-01T17:52:23.560Z,16.29
2017-10-01T17:53:24.285Z,16.29
2017-10-01T17:54:24.998Z,16.31
2017-10-01T17:55:25.713Z,16.29
2017-10-01T17:56:26.425Z,16.31
2017-10-01T17:57:27.153Z,16.35
2017-10-01T17:58:27.867Z,16.24
2017-10-01T17:59:28.579Z,16.32